AZA791 YMML-YSSY
Flight info
| Callsign | AZA791 |
|---|---|
| Flight time | 1h 0m |
| Altitude | 37000 |
| Route | ML H129 DOSEL Y59 RIVET |
| Aircraft | B742/H-SDFHIRWXY/L |
Departure
| Time | 2026-04-20 06:24 |
|---|---|
| Airport | Melbourne Airport (YMML) |
Arrival
| Time | 2026-04-20 07:24 |
|---|---|
| Airport | Sydney Kingsford Smith International Airport (YSSY) |
| Time | Latitude | Longitude | Altitude | Speed | Heading |
|---|---|---|---|---|---|
| 2026-04-20 05:56 | -37.66785 | 144.84707 | 447 ft | 0 kts | 261° |
| 2026-04-20 06:08 | -37.66784 | 144.84713 | 447 ft | 3 kts | 261° |
| 2026-04-20 06:08 | -37.66782 | 144.84729 | 447 ft | 2 kts | 261° |
| 2026-04-20 06:08 | -37.66779 | 144.84753 | 447 ft | 3 kts | 261° |
| 2026-04-20 06:09 | -37.66773 | 144.84799 | 447 ft | 5 kts | 258° |
| 2026-04-20 06:09 | -37.66785 | 144.84828 | 447 ft | 0 kts | 347° |
| 2026-04-20 06:09 | -37.66755 | 144.84819 | 447 ft | 0 kts | 349° |
| 2026-04-20 06:15 | -37.66726 | 144.84815 | 447 ft | 8 kts | 357° |
| 2026-04-20 06:16 | -37.66674 | 144.84812 | 447 ft | 7 kts | 352° |
| 2026-04-20 06:16 | -37.66654 | 144.84763 | 447 ft | 7 kts | 266° |
| 2026-04-20 06:16 | -37.66660 | 144.84703 | 447 ft | 7 kts | 262° |
| 2026-04-20 06:16 | -37.66668 | 144.84621 | 447 ft | 11 kts | 267° |
| 2026-04-20 06:17 | -37.66673 | 144.84517 | 447 ft | 15 kts | 264° |
| 2026-04-20 06:17 | -37.66693 | 144.84361 | 447 ft | 18 kts | 259° |
| 2026-04-20 06:17 | -37.66695 | 144.84210 | 447 ft | 17 kts | 311° |
| 2026-04-20 06:17 | -37.66584 | 144.84171 | 447 ft | 16 kts | 351° |
| 2026-04-20 06:18 | -37.66468 | 144.84144 | 447 ft | 17 kts | 349° |
| 2026-04-20 06:18 | -37.66354 | 144.84120 | 447 ft | 16 kts | 352° |
| 2026-04-20 06:18 | -37.66215 | 144.84095 | 447 ft | 24 kts | 352° |
| 2026-04-20 06:18 | -37.66036 | 144.84062 | 447 ft | 26 kts | 352° |
| 2026-04-20 06:19 | -37.65865 | 144.84030 | 447 ft | 23 kts | 352° |
| 2026-04-20 06:19 | -37.65708 | 144.84000 | 447 ft | 22 kts | 351° |
| 2026-04-20 06:19 | -37.65559 | 144.83969 | 447 ft | 21 kts | 351° |
| 2026-04-20 06:19 | -37.65441 | 144.83948 | 447 ft | 10 kts | 353° |
| 2026-04-20 06:20 | -37.65385 | 144.83938 | 447 ft | 0 kts | 352° |
| 2026-04-20 06:22 | -37.65341 | 144.83929 | 447 ft | 10 kts | 339° |
| 2026-04-20 06:22 | -37.65299 | 144.83864 | 447 ft | 10 kts | 285° |
| 2026-04-20 06:22 | -37.65306 | 144.83780 | 447 ft | 10 kts | 259° |
| 2026-04-20 06:23 | -37.65317 | 144.83697 | 447 ft | 9 kts | 261° |
| 2026-04-20 06:23 | -37.65328 | 144.83611 | 447 ft | 10 kts | 261° |
| 2026-04-20 06:23 | -37.65343 | 144.83524 | 447 ft | 10 kts | 229° |
| 2026-04-20 06:23 | -37.65413 | 144.83508 | 447 ft | 17 kts | 173° |
| 2026-04-20 06:24 | -37.65685 | 144.83558 | 447 ft | 72 kts | 171° |
| 2026-04-20 06:24 | -37.66428 | 144.83697 | 448 ft | 141 kts | 172° |
| 2026-04-20 06:24 | -37.67527 | 144.83895 | 781 ft | 164 kts | 172° |
| 2026-04-20 06:24 | -37.68665 | 144.84105 | 1584 ft | 168 kts | 171° |
| 2026-04-20 06:25 | -37.69853 | 144.84331 | 2131 ft | 182 kts | 171° |
| 2026-04-20 06:25 | -37.71194 | 144.84587 | 2451 ft | 208 kts | 172° |
| 2026-04-20 06:25 | -37.72720 | 144.84878 | 2698 ft | 235 kts | 172° |
| 2026-04-20 06:25 | -37.74438 | 144.84839 | 2937 ft | 259 kts | 194° |
| 2026-04-20 06:26 | -37.75989 | 144.83731 | 3628 ft | 263 kts | 222° |
| 2026-04-20 06:26 | -37.77061 | 144.81853 | 4445 ft | 265 kts | 241° |
| 2026-04-20 06:26 | -37.77539 | 144.79627 | 4803 ft | 263 kts | 268° |
| 2026-04-20 06:26 | -37.77190 | 144.77370 | 4977 ft | 264 kts | 291° |
| 2026-04-20 06:27 | -37.76344 | 144.75322 | 5598 ft | 262 kts | 298° |
| 2026-04-20 06:27 | -37.75338 | 144.73381 | 6445 ft | 270 kts | 313° |
| 2026-04-20 06:27 | -37.73766 | 144.72115 | 7376 ft | 270 kts | 339° |
| 2026-04-20 06:27 | -37.71884 | 144.71865 | 8239 ft | 278 kts | 4° |
| 2026-04-20 06:28 | -37.70027 | 144.72651 | 9026 ft | 286 kts | 25° |
| 2026-04-20 06:28 | -37.68293 | 144.73958 | 9788 ft | 294 kts | 29° |
| 2026-04-20 06:28 | -37.66482 | 144.75214 | 10572 ft | 299 kts | 24° |
| 2026-04-20 06:28 | -37.64548 | 144.76273 | 11067 ft | 318 kts | 20° |
| 2026-04-20 06:29 | -37.62373 | 144.77245 | 11276 ft | 346 kts | 18° |
| 2026-04-20 06:29 | -37.59999 | 144.78237 | 11475 ft | 374 kts | 18° |
| 2026-04-20 06:29 | -37.57445 | 144.79349 | 11681 ft | 401 kts | 18° |
| 2026-04-20 06:29 | -37.54861 | 144.80815 | 12323 ft | 412 kts | 30° |
| 2026-04-20 06:30 | -37.52522 | 144.82952 | 13176 ft | 419 kts | 39° |
| 2026-04-20 06:30 | -37.50296 | 144.85371 | 14047 ft | 427 kts | 40° |
| 2026-04-20 06:30 | -37.47961 | 144.87733 | 14991 ft | 432 kts | 38° |
| 2026-04-20 06:30 | -37.45541 | 144.90013 | 15964 ft | 437 kts | 38° |
| 2026-04-20 06:31 | -37.43313 | 144.92656 | 16859 ft | 442 kts | 48° |
| 2026-04-20 06:31 | -37.41349 | 144.95598 | 17696 ft | 448 kts | 53° |
| 2026-04-20 06:31 | -37.39478 | 144.98772 | 18517 ft | 454 kts | 56° |
| 2026-04-20 06:31 | -37.37664 | 145.02071 | 19303 ft | 461 kts | 57° |
| 2026-04-20 06:32 | -37.35825 | 145.05425 | 20048 ft | 468 kts | 57° |
| 2026-04-20 06:32 | -37.33962 | 145.08816 | 20756 ft | 476 kts | 57° |
| 2026-04-20 06:32 | -37.32051 | 145.12252 | 21468 ft | 483 kts | 57° |
| 2026-04-20 06:32 | -37.30098 | 145.15714 | 22183 ft | 488 kts | 57° |
| 2026-04-20 06:33 | -37.28114 | 145.19206 | 22912 ft | 493 kts | 57° |
| 2026-04-20 06:33 | -37.26105 | 145.22733 | 23624 ft | 499 kts | 57° |
| 2026-04-20 06:33 | -37.24069 | 145.26301 | 24308 ft | 504 kts | 57° |
| 2026-04-20 06:33 | -37.22045 | 145.29846 | 24985 ft | 508 kts | 57° |
| 2026-04-20 06:34 | -37.19974 | 145.33469 | 25647 ft | 513 kts | 57° |
| 2026-04-20 06:34 | -37.17885 | 145.37122 | 26267 ft | 518 kts | 57° |
| 2026-04-20 06:34 | -37.13656 | 145.44505 | 27434 ft | 525 kts | 57° |
| 2026-04-20 06:35 | -37.11509 | 145.48234 | 27956 ft | 528 kts | 57° |
| 2026-04-20 06:35 | -37.09346 | 145.51985 | 28421 ft | 532 kts | 57° |
| 2026-04-20 06:35 | -37.07181 | 145.55734 | 29113 ft | 530 kts | 57° |
| 2026-04-20 06:35 | -37.05027 | 145.59461 | 29812 ft | 527 kts | 57° |
| 2026-04-20 06:36 | -37.02878 | 145.63175 | 30482 ft | 525 kts | 58° |
| 2026-04-20 06:36 | -37.00736 | 145.66873 | 31024 ft | 524 kts | 58° |
| 2026-04-20 06:36 | -36.98597 | 145.70561 | 31560 ft | 524 kts | 58° |
| 2026-04-20 06:36 | -36.96486 | 145.74200 | 32111 ft | 522 kts | 58° |
| 2026-04-20 06:37 | -36.94347 | 145.77937 | 32672 ft | 520 kts | 59° |
| 2026-04-20 06:37 | -36.92269 | 145.81564 | 33180 ft | 519 kts | 59° |
| 2026-04-20 06:37 | -36.90161 | 145.85222 | 33617 ft | 519 kts | 59° |
| 2026-04-20 06:37 | -36.88047 | 145.88877 | 34070 ft | 518 kts | 59° |
| 2026-04-20 06:38 | -36.85939 | 145.92514 | 34542 ft | 517 kts | 59° |
| 2026-04-20 06:38 | -36.83827 | 145.96148 | 34932 ft | 517 kts | 59° |
| 2026-04-20 06:38 | -36.81714 | 145.99780 | 35306 ft | 517 kts | 59° |
| 2026-04-20 06:38 | -36.79601 | 146.03407 | 35678 ft | 517 kts | 59° |
| 2026-04-20 06:39 | -36.77484 | 146.07036 | 36023 ft | 517 kts | 59° |
| 2026-04-20 06:39 | -36.75391 | 146.10620 | 36363 ft | 517 kts | 59° |
| 2026-04-20 06:39 | -36.73275 | 146.14240 | 36700 ft | 517 kts | 59° |
| 2026-04-20 06:39 | -36.71157 | 146.17860 | 37046 ft | 516 kts | 59° |
| 2026-04-20 06:40 | -36.69039 | 146.21475 | 37270 ft | 516 kts | 59° |
| 2026-04-20 06:40 | -36.64791 | 146.28714 | 37319 ft | 517 kts | 59° |
| 2026-04-20 06:41 | -36.60543 | 146.35937 | 37320 ft | 517 kts | 59° |
| 2026-04-20 06:41 | -36.56291 | 146.43152 | 37320 ft | 517 kts | 59° |
| 2026-04-20 06:42 | -36.52033 | 146.50362 | 37320 ft | 517 kts | 59° |
| 2026-04-20 06:42 | -36.47724 | 146.57642 | 37321 ft | 529 kts | 58° |
| 2026-04-20 06:43 | -36.43336 | 146.65041 | 37321 ft | 539 kts | 58° |
| 2026-04-20 06:43 | -36.38845 | 146.72596 | 37321 ft | 543 kts | 58° |
| 2026-04-20 06:44 | -36.34378 | 146.80149 | 37320 ft | 542 kts | 58° |
| 2026-04-20 06:44 | -36.29890 | 146.87663 | 37320 ft | 542 kts | 58° |
| 2026-04-20 06:45 | -36.25386 | 146.95168 | 37321 ft | 542 kts | 58° |
| 2026-04-20 06:45 | -36.20882 | 147.02661 | 37321 ft | 542 kts | 58° |
| 2026-04-20 06:46 | -36.16380 | 147.10144 | 37320 ft | 542 kts | 58° |
| 2026-04-20 06:46 | -36.11893 | 147.17568 | 37320 ft | 543 kts | 58° |
| 2026-04-20 06:47 | -36.07366 | 147.25045 | 37321 ft | 542 kts | 58° |
| 2026-04-20 06:47 | -36.02850 | 147.32497 | 37320 ft | 542 kts | 58° |
| 2026-04-20 06:48 | -35.98371 | 147.39984 | 37320 ft | 541 kts | 58° |
| 2026-04-20 06:48 | -35.93843 | 147.47427 | 37320 ft | 541 kts | 58° |
| 2026-04-20 06:49 | -35.89307 | 147.54857 | 37316 ft | 541 kts | 57° |
| 2026-04-20 06:49 | -35.84809 | 147.62213 | 37316 ft | 541 kts | 57° |
| 2026-04-20 06:50 | -35.80265 | 147.69630 | 37316 ft | 542 kts | 57° |
| 2026-04-20 06:50 | -35.75703 | 147.77048 | 37316 ft | 542 kts | 57° |
| 2026-04-20 06:51 | -35.71143 | 147.84449 | 37317 ft | 542 kts | 57° |
| 2026-04-20 06:51 | -35.66577 | 147.91848 | 37317 ft | 542 kts | 57° |
| 2026-04-20 06:52 | -35.62043 | 147.99207 | 37317 ft | 542 kts | 58° |
| 2026-04-20 06:52 | -35.57527 | 148.06619 | 37317 ft | 541 kts | 57° |
| 2026-04-20 06:53 | -35.52957 | 148.13987 | 37318 ft | 541 kts | 57° |
| 2026-04-20 06:53 | -35.48383 | 148.21336 | 37318 ft | 542 kts | 57° |
| 2026-04-20 06:54 | -35.43804 | 148.28684 | 37318 ft | 542 kts | 57° |
| 2026-04-20 06:54 | -35.39248 | 148.35977 | 37318 ft | 541 kts | 57° |
| 2026-04-20 06:55 | -35.34657 | 148.43298 | 37318 ft | 542 kts | 57° |
| 2026-04-20 06:55 | -35.30058 | 148.50614 | 37318 ft | 542 kts | 57° |
| 2026-04-20 06:56 | -35.25457 | 148.57921 | 37317 ft | 541 kts | 57° |
| 2026-04-20 06:56 | -35.21634 | 148.63988 | 37316 ft | 542 kts | 58° |
| 2026-04-20 06:57 | -35.17058 | 148.71323 | 37316 ft | 542 kts | 57° |
| 2026-04-20 06:57 | -35.12459 | 148.78630 | 37316 ft | 541 kts | 57° |
| 2026-04-20 06:58 | -35.07858 | 148.85910 | 37317 ft | 541 kts | 57° |
| 2026-04-20 06:58 | -35.03277 | 148.93140 | 37317 ft | 541 kts | 57° |
| 2026-04-20 06:59 | -34.98658 | 149.00414 | 37317 ft | 541 kts | 57° |
| 2026-04-20 06:59 | -34.94045 | 149.07664 | 37316 ft | 541 kts | 57° |
| 2026-04-20 07:00 | -34.89444 | 149.14932 | 37316 ft | 541 kts | 57° |
| 2026-04-20 07:00 | -34.84814 | 149.22165 | 37315 ft | 541 kts | 57° |
| 2026-04-20 07:01 | -34.80216 | 149.29327 | 37115 ft | 535 kts | 57° |
| 2026-04-20 07:01 | -34.77934 | 149.32878 | 36903 ft | 532 kts | 57° |
| 2026-04-20 07:01 | -34.75653 | 149.36427 | 36634 ft | 530 kts | 58° |
| 2026-04-20 07:01 | -34.73565 | 149.40079 | 36312 ft | 524 kts | 63° |
| 2026-04-20 07:02 | -34.71725 | 149.43899 | 35925 ft | 522 kts | 67° |
| 2026-04-20 07:02 | -34.70034 | 149.47785 | 35378 ft | 518 kts | 69° |
| 2026-04-20 07:02 | -34.68395 | 149.51685 | 34364 ft | 519 kts | 69° |
| 2026-04-20 07:02 | -34.66730 | 149.55572 | 33455 ft | 517 kts | 68° |
| 2026-04-20 07:03 | -34.65056 | 149.59439 | 32518 ft | 516 kts | 68° |
| 2026-04-20 07:03 | -34.63409 | 149.63299 | 31553 ft | 514 kts | 68° |
| 2026-04-20 07:03 | -34.61739 | 149.67144 | 30550 ft | 514 kts | 67° |
| 2026-04-20 07:03 | -34.60080 | 149.70926 | 29517 ft | 515 kts | 67° |
| 2026-04-20 07:04 | -34.58394 | 149.74754 | 28624 ft | 512 kts | 67° |
| 2026-04-20 07:04 | -34.56722 | 149.78543 | 27801 ft | 507 kts | 66° |
| 2026-04-20 07:04 | -34.55062 | 149.82303 | 26987 ft | 503 kts | 66° |
| 2026-04-20 07:04 | -34.53417 | 149.86028 | 26187 ft | 499 kts | 66° |
| 2026-04-20 07:05 | -34.51783 | 149.89726 | 25405 ft | 496 kts | 66° |
| 2026-04-20 07:05 | -34.50157 | 149.93405 | 24640 ft | 493 kts | 66° |
| 2026-04-20 07:05 | -34.48540 | 149.97058 | 23882 ft | 490 kts | 65° |
| 2026-04-20 07:05 | -34.46930 | 150.00684 | 23129 ft | 487 kts | 65° |
| 2026-04-20 07:06 | -34.45324 | 150.04296 | 22376 ft | 484 kts | 65° |
| 2026-04-20 07:06 | -34.43732 | 150.07877 | 21628 ft | 479 kts | 65° |
| 2026-04-20 07:06 | -34.42180 | 150.11426 | 20888 ft | 474 kts | 65° |
| 2026-04-20 07:06 | -34.40658 | 150.14889 | 20160 ft | 469 kts | 65° |
| 2026-04-20 07:07 | -34.39123 | 150.18348 | 19430 ft | 465 kts | 64° |
| 2026-04-20 07:07 | -34.37589 | 150.21789 | 18699 ft | 460 kts | 64° |
| 2026-04-20 07:07 | -34.36072 | 150.25184 | 17976 ft | 456 kts | 64° |
| 2026-04-20 07:07 | -34.34567 | 150.28545 | 17260 ft | 451 kts | 64° |
| 2026-04-20 07:08 | -34.33073 | 150.31880 | 16545 ft | 447 kts | 64° |
| 2026-04-20 07:08 | -34.31620 | 150.35121 | 15914 ft | 441 kts | 64° |
| 2026-04-20 07:08 | -34.30167 | 150.38362 | 15264 ft | 436 kts | 64° |
| 2026-04-20 07:08 | -34.28730 | 150.41566 | 14593 ft | 431 kts | 64° |
| 2026-04-20 07:09 | -34.27312 | 150.44745 | 13946 ft | 427 kts | 64° |
| 2026-04-20 07:09 | -34.25915 | 150.47890 | 13274 ft | 423 kts | 64° |
| 2026-04-20 07:09 | -34.24522 | 150.51007 | 12628 ft | 418 kts | 64° |
| 2026-04-20 07:09 | -34.23138 | 150.54089 | 12010 ft | 416 kts | 64° |
| 2026-04-20 07:10 | -34.21761 | 150.57156 | 11383 ft | 414 kts | 64° |
| 2026-04-20 07:10 | -34.20393 | 150.60202 | 10829 ft | 410 kts | 64° |
| 2026-04-20 07:10 | -34.19025 | 150.63243 | 10396 ft | 413 kts | 64° |
| 2026-04-20 07:10 | -34.17650 | 150.66306 | 10014 ft | 417 kts | 64° |
| 2026-04-20 07:11 | -34.16275 | 150.69378 | 9641 ft | 415 kts | 63° |
| 2026-04-20 07:11 | -34.14898 | 150.72437 | 9266 ft | 413 kts | 63° |
| 2026-04-20 07:11 | -34.13525 | 150.75476 | 8889 ft | 410 kts | 63° |
| 2026-04-20 07:11 | -34.12178 | 150.78457 | 8542 ft | 408 kts | 63° |
| 2026-04-20 07:12 | -34.10823 | 150.81458 | 8259 ft | 406 kts | 63° |
| 2026-04-20 07:12 | -34.09480 | 150.84442 | 8009 ft | 404 kts | 63° |
| 2026-04-20 07:12 | -34.08147 | 150.87417 | 7759 ft | 402 kts | 63° |
| 2026-04-20 07:12 | -34.06817 | 150.90367 | 7508 ft | 400 kts | 63° |
| 2026-04-20 07:13 | -34.05486 | 150.93317 | 7258 ft | 398 kts | 63° |
| 2026-04-20 07:13 | -34.04183 | 150.96198 | 7011 ft | 396 kts | 63° |
| 2026-04-20 07:13 | -34.02866 | 150.99111 | 6790 ft | 394 kts | 63° |
| 2026-04-20 07:13 | -34.01435 | 151.01921 | 6630 ft | 393 kts | 55° |
| 2026-04-20 07:14 | -33.99606 | 151.04367 | 6505 ft | 394 kts | 44° |
| 2026-04-20 07:14 | -33.97432 | 151.06373 | 6301 ft | 395 kts | 34° |
| 2026-04-20 07:14 | -33.94985 | 151.07870 | 6051 ft | 393 kts | 23° |
| 2026-04-20 07:14 | -33.92403 | 151.08752 | 5792 ft | 379 kts | 9° |
| 2026-04-20 07:15 | -33.90720 | 151.08832 | 5585 ft | 371 kts | 357° |
| 2026-04-20 07:15 | -33.88493 | 151.08397 | 5273 ft | 363 kts | 347° |
| 2026-04-20 07:15 | -33.86101 | 151.07673 | 5107 ft | 342 kts | 345° |
| 2026-04-20 07:15 | -33.83878 | 151.06927 | 4956 ft | 322 kts | 343° |
| 2026-04-20 07:16 | -33.81823 | 151.06188 | 4835 ft | 304 kts | 342° |
| 2026-04-20 07:16 | -33.79859 | 151.05486 | 4712 ft | 286 kts | 343° |
| 2026-04-20 07:16 | -33.78063 | 151.04626 | 4540 ft | 269 kts | 328° |
| 2026-04-20 07:16 | -33.76640 | 151.03288 | 4258 ft | 251 kts | 317° |
| 2026-04-20 07:17 | -33.75387 | 151.01862 | 4095 ft | 246 kts | 315° |
| 2026-04-20 07:17 | -33.73955 | 151.00754 | 4044 ft | 248 kts | 340° |
| 2026-04-20 07:17 | -33.72248 | 151.00626 | 3980 ft | 249 kts | 9° |
| 2026-04-20 07:17 | -33.70703 | 151.01516 | 3971 ft | 247 kts | 39° |
| 2026-04-20 07:18 | -33.69717 | 151.03171 | 3984 ft | 244 kts | 69° |
| 2026-04-20 07:18 | -33.69524 | 151.05157 | 3982 ft | 239 kts | 98° |
| 2026-04-20 07:18 | -33.70125 | 151.06946 | 3983 ft | 234 kts | 124° |
| 2026-04-20 07:18 | -33.71264 | 151.08298 | 3986 ft | 230 kts | 143° |
| 2026-04-20 07:19 | -33.72583 | 151.09364 | 3820 ft | 225 kts | 148° |
| 2026-04-20 07:19 | -33.73863 | 151.10305 | 3630 ft | 207 kts | 150° |
| 2026-04-20 07:19 | -33.75034 | 151.11146 | 3445 ft | 189 kts | 151° |
| 2026-04-20 07:19 | -33.76170 | 151.11888 | 3248 ft | 183 kts | 155° |
| 2026-04-20 07:20 | -33.77336 | 151.12496 | 3073 ft | 182 kts | 159° |
| 2026-04-20 07:20 | -33.78518 | 151.13034 | 3006 ft | 181 kts | 160° |
| 2026-04-20 07:20 | -33.79697 | 151.13561 | 2889 ft | 186 kts | 160° |
| 2026-04-20 07:20 | -33.80934 | 151.14045 | 2475 ft | 186 kts | 165° |
| 2026-04-20 07:21 | -33.82146 | 151.14396 | 2161 ft | 169 kts | 168° |
| 2026-04-20 07:21 | -33.83254 | 151.14668 | 1957 ft | 156 kts | 169° |
| 2026-04-20 07:21 | -33.84279 | 151.14923 | 1776 ft | 145 kts | 169° |
| 2026-04-20 07:21 | -33.85251 | 151.15171 | 1597 ft | 141 kts | 169° |
| 2026-04-20 07:22 | -33.86187 | 151.15412 | 1388 ft | 137 kts | 170° |
| 2026-04-20 07:22 | -33.87116 | 151.15652 | 1198 ft | 136 kts | 170° |
| 2026-04-20 07:22 | -33.88044 | 151.15893 | 1017 ft | 136 kts | 170° |
| 2026-04-20 07:22 | -33.88970 | 151.16132 | 835 ft | 136 kts | 170° |
| 2026-04-20 07:23 | -33.89892 | 151.16371 | 655 ft | 136 kts | 170° |
| 2026-04-20 07:23 | -33.90815 | 151.16611 | 475 ft | 135 kts | 169° |
| 2026-04-20 07:23 | -33.91735 | 151.16849 | 295 ft | 135 kts | 168° |
| 2026-04-20 07:23 | -33.92652 | 151.17087 | 118 ft | 135 kts | 168° |
| 2026-04-20 07:24 | -33.93540 | 151.17317 | 35 ft | 119 kts | 169° |
| 2026-04-20 07:24 | -33.94154 | 151.17474 | 35 ft | 74 kts | 167° |
| 2026-04-20 07:24 | -33.94624 | 151.17596 | 35 ft | 59 kts | 167° |
| 2026-04-20 07:24 | -33.94938 | 151.17651 | 34 ft | 37 kts | 180° |
| 2026-04-20 07:25 | -33.95090 | 151.17629 | 34 ft | 9 kts | 191° |
| 2026-04-20 07:25 | -33.95144 | 151.17596 | 34 ft | 9 kts | 232° |
| 2026-04-20 07:25 | -33.95135 | 151.17536 | 34 ft | 8 kts | 325° |
| 2026-04-20 07:25 | -33.95082 | 151.17513 | 34 ft | 8 kts | 8° |
| 2026-04-20 07:26 | -33.95064 | 151.17522 | 34 ft | 1 kts | 13° |
| 2026-04-20 07:26 | -33.95047 | 151.17516 | 34 ft | 6 kts | 339° |
| 2026-04-20 07:26 | -33.95009 | 151.17499 | 34 ft | 6 kts | 339° |
| 2026-04-20 07:26 | -33.94946 | 151.17478 | 34 ft | 15 kts | 346° |
| 2026-04-20 07:27 | -33.94811 | 151.17441 | 34 ft | 23 kts | 350° |
| 2026-04-20 07:27 | -33.94659 | 151.17402 | 34 ft | 22 kts | 347° |
| 2026-04-20 07:27 | -33.94515 | 151.17365 | 34 ft | 21 kts | 348° |
| 2026-04-20 07:27 | -33.94373 | 151.17330 | 34 ft | 20 kts | 348° |
| 2026-04-20 07:28 | -33.94240 | 151.17297 | 34 ft | 19 kts | 348° |
| 2026-04-20 07:28 | -33.94135 | 151.17266 | 34 ft | 9 kts | 346° |
| 2026-04-20 07:28 | -33.94076 | 151.17213 | 34 ft | 12 kts | 287° |
| 2026-04-20 07:28 | -33.94086 | 151.17118 | 34 ft | 11 kts | 252° |
| 2026-04-20 07:29 | -33.94109 | 151.17029 | 34 ft | 11 kts | 252° |
| 2026-04-20 07:29 | -33.94130 | 151.16943 | 34 ft | 11 kts | 254° |
| 2026-04-20 07:29 | -33.94132 | 151.16860 | 34 ft | 10 kts | 306° |
| 2026-04-20 07:29 | -33.94073 | 151.16823 | 34 ft | 10 kts | 339° |
| 2026-04-20 07:30 | -33.94026 | 151.16768 | 34 ft | 9 kts | 303° |
| 2026-04-20 07:30 | -33.93991 | 151.16704 | 34 ft | 9 kts | 304° |
| 2026-04-20 07:30 | -33.93974 | 151.16674 | 34 ft | 0 kts | 304° |